KCOF

Patrick AFB Airport

Cocoa Beach, Florida, USA
METAR KCOF 140056Z AUTO 13005KT 10SM BKN080 21/19 A3013 RMK AO2 SLP207 T02060194 $
Observed Flight Rules
Dec-14 @ 00:56 UTC (27 minutes ago) Visual Flight Rules
Wind Visibility Clouds
130° at 5 knots 10 miles
  • Broken at 8,000' AGL
Temperatures Readings
Current 21°C / 70°F
Dewpoint 19°C / 66°F
Humidity 88%
Altimeter 30.13" Hg
Pressure 1020.7 hPa
Elevation 3
METAR KCOF 140056Z AUTO 13005KT 10SM BKN080 21/19 A3013 RMK AO2 SLP207 T02060194 $
Observed Flight Rules
Dec-14 @ 00:56 UTC
(27 minutes ago)
VFR
Wind Visibility
130° at 5 knots 10 miles
Clouds
  • Broken at 8,000' AGL
Temperature Dewpoint
21°C / 70°F 19°C / 66°F
Humidity Altimeter Pressure
88% 30.13" Hg 1020.7 hPa